sensor_id;sensor_type;location;lat;lon;timestamp;P1;durP1;ratioP1;P2;durP2;ratioP2
52962;SDS011;38827;53.024;6.596;2023-10-31T00:01:11;5.80;;;3.83;;
52962;SDS011;38827;53.024;6.596;2023-10-31T00:03:37;7.25;;;4.07;;
52962;SDS011;38827;53.024;6.596;2023-10-31T00:06:02;5.07;;;4.13;;
52962;SDS011;38827;53.024;6.596;2023-10-31T00:08:28;5.63;;;4.10;;
52962;SDS011;38827;53.024;6.596;2023-10-31T00:10:53;7.13;;;4.50;;
52962;SDS011;38827;53.024;6.596;2023-10-31T00:13:19;12.77;;;5.80;;
52962;SDS011;38827;53.024;6.596;2023-10-31T00:15:45;7.57;;;6.28;;
52962;SDS011;38827;53.024;6.596;2023-10-31T00:18:10;7.38;;;5.28;;
52962;SDS011;38827;53.024;6.596;2023-10-31T00:20:36;5.20;;;4.18;;
52962;SDS011;38827;53.024;6.596;2023-10-31T00:23:01;6.18;;;3.28;;
52962;SDS011;38827;53.024;6.596;2023-10-31T00:25:27;6.85;;;3.40;;
52962;SDS011;38827;53.024;6.596;2023-10-31T00:27:53;5.82;;;3.38;;
52962;SDS011;38827;53.024;6.596;2023-10-31T00:30:18;6.72;;;3.50;;
52962;SDS011;38827;53.024;6.596;2023-10-31T00:32:47;4.22;;;2.90;;
52962;SDS011;38827;53.024;6.596;2023-10-31T00:35:12;4.35;;;3.13;;
52962;SDS011;38827;53.024;6.596;2023-10-31T00:37:38;5.45;;;2.40;;
52962;SDS011;38827;53.024;6.596;2023-10-31T00:40:10;3.75;;;2.25;;
52962;SDS011;38827;53.024;6.596;2023-10-31T00:42:42;4.82;;;2.60;;
52962;SDS011;38827;53.024;6.596;2023-10-31T00:45:15;4.03;;;2.30;;
52962;SDS011;38827;53.024;6.596;2023-10-31T00:48:01;3.97;;;2.30;;
52962;SDS011;38827;53.024;6.596;2023-10-31T00:50:35;4.15;;;2.20;;
52962;SDS011;38827;53.024;6.596;2023-10-31T00:53:01;4.82;;;2.10;;
52962;SDS011;38827;53.024;6.596;2023-10-31T00:55:27;3.17;;;1.63;;
52962;SDS011;38827;53.024;6.596;2023-10-31T00:57:52;1.83;;;1.38;;
52962;SDS011;38827;53.024;6.596;2023-10-31T01:00:18;1.08;;;0.90;;
52962;SDS011;38827;53.024;6.596;2023-10-31T01:02:44;2.75;;;1.20;;
52962;SDS011;38827;53.024;6.596;2023-10-31T01:05:10;1.50;;;0.70;;
52962;SDS011;38827;53.024;6.596;2023-10-31T01:07:36;2.85;;;0.77;;
52962;SDS011;38827;53.024;6.596;2023-10-31T01:10:02;1.48;;;1.00;;
52962;SDS011;38827;53.024;6.596;2023-10-31T01:12:28;1.33;;;0.85;;
52962;SDS011;38827;53.024;6.596;2023-10-31T01:14:54;1.83;;;1.00;;
52962;SDS011;38827;53.024;6.596;2023-10-31T01:17:20;2.38;;;0.90;;
52962;SDS011;38827;53.024;6.596;2023-10-31T01:19:46;1.85;;;0.70;;
52962;SDS011;38827;53.024;6.596;2023-10-31T01:22:12;1.90;;;0.93;;
52962;SDS011;38827;53.024;6.596;2023-10-31T01:24:38;1.42;;;0.90;;
52962;SDS011;38827;53.024;6.596;2023-10-31T01:27:03;2.67;;;0.88;;
52962;SDS011;38827;53.024;6.596;2023-10-31T01:29:29;1.77;;;0.95;;
52962;SDS011;38827;53.024;6.596;2023-10-31T01:31:55;1.58;;;0.70;;
52962;SDS011;38827;53.024;6.596;2023-10-31T01:34:21;4.43;;;0.80;;
52962;SDS011;38827;53.024;6.596;2023-10-31T01:36:47;3.97;;;0.80;;
52962;SDS011;38827;53.024;6.596;2023-10-31T01:39:12;6.22;;;1.02;;
52962;SDS011;38827;53.024;6.596;2023-10-31T01:41:40;5.07;;;1.23;;
52962;SDS011;38827;53.024;6.596;2023-10-31T01:44:07;2.80;;;0.60;;
52962;SDS011;38827;53.024;6.596;2023-10-31T01:46:32;2.67;;;0.80;;
52962;SDS011;38827;53.024;6.596;2023-10-31T01:48:58;4.32;;;1.17;;
52962;SDS011;38827;53.024;6.596;2023-10-31T01:51:24;3.78;;;1.08;;
52962;SDS011;38827;53.024;6.596;2023-10-31T01:53:51;4.47;;;1.20;;
52962;SDS011;38827;53.024;6.596;2023-10-31T01:56:17;2.83;;;1.27;;
52962;SDS011;38827;53.024;6.596;2023-10-31T01:58:45;4.85;;;1.40;;
52962;SDS011;38827;53.024;6.596;2023-10-31T02:01:13;6.10;;;1.35;;
52962;SDS011;38827;53.024;6.596;2023-10-31T02:03:39;5.95;;;1.30;;
52962;SDS011;38827;53.024;6.596;2023-10-31T02:06:04;5.57;;;1.30;;
52962;SDS011;38827;53.024;6.596;2023-10-31T02:08:30;4.15;;;1.05;;
52962;SDS011;38827;53.024;6.596;2023-10-31T02:10:56;3.33;;;0.90;;
52962;SDS011;38827;53.024;6.596;2023-10-31T02:13:22;2.40;;;1.00;;
52962;SDS011;38827;53.024;6.596;2023-10-31T02:15:48;4.93;;;1.48;;
52962;SDS011;38827;53.024;6.596;2023-10-31T02:18:14;5.88;;;1.10;;
52962;SDS011;38827;53.024;6.596;2023-10-31T02:20:40;6.80;;;1.50;;
52962;SDS011;38827;53.024;6.596;2023-10-31T02:23:06;4.53;;;0.90;;
52962;SDS011;38827;53.024;6.596;2023-10-31T02:25:32;3.58;;;1.15;;
52962;SDS011;38827;53.024;6.596;2023-10-31T02:27:58;3.95;;;1.13;;
52962;SDS011;38827;53.024;6.596;2023-10-31T02:30:24;3.92;;;1.05;;
52962;SDS011;38827;53.024;6.596;2023-10-31T02:32:49;2.65;;;0.65;;
52962;SDS011;38827;53.024;6.596;2023-10-31T02:35:16;3.80;;;0.90;;
52962;SDS011;38827;53.024;6.596;2023-10-31T02:40:08;3.25;;;0.82;;
52962;SDS011;38827;53.024;6.596;2023-10-31T02:42:34;3.70;;;0.80;;
52962;SDS011;38827;53.024;6.596;2023-10-31T02:45:00;3.75;;;1.02;;
52962;SDS011;38827;53.024;6.596;2023-10-31T02:47:26;7.00;;;0.90;;
52962;SDS011;38827;53.024;6.596;2023-10-31T02:49:51;9.32;;;1.23;;
52962;SDS011;38827;53.024;6.596;2023-10-31T02:52:17;5.82;;;1.35;;
52962;SDS011;38827;53.024;6.596;2023-10-31T02:54:43;7.65;;;1.58;;
52962;SDS011;38827;53.024;6.596;2023-10-31T02:57:08;5.40;;;1.77;;
52962;SDS011;38827;53.024;6.596;2023-10-31T02:59:34;5.55;;;1.40;;
52962;SDS011;38827;53.024;6.596;2023-10-31T03:02:00;8.23;;;1.88;;
52962;SDS011;38827;53.024;6.596;2023-10-31T03:04:29;5.03;;;1.90;;
52962;SDS011;38827;53.024;6.596;2023-10-31T03:06:55;3.95;;;2.10;;
52962;SDS011;38827;53.024;6.596;2023-10-31T03:09:20;5.10;;;2.10;;
52962;SDS011;38827;53.024;6.596;2023-10-31T03:11:46;6.05;;;3.00;;
52962;SDS011;38827;53.024;6.596;2023-10-31T03:14:14;5.70;;;2.70;;
52962;SDS011;38827;53.024;6.596;2023-10-31T03:16:39;7.90;;;2.85;;
52962;SDS011;38827;53.024;6.596;2023-10-31T03:19:05;6.18;;;2.70;;
52962;SDS011;38827;53.024;6.596;2023-10-31T03:21:31;9.45;;;3.80;;
52962;SDS011;38827;53.024;6.596;2023-10-31T03:23:56;7.72;;;3.78;;
52962;SDS011;38827;53.024;6.596;2023-10-31T03:26:22;8.20;;;3.90;;
52962;SDS011;38827;53.024;6.596;2023-10-31T03:28:48;9.10;;;3.97;;
52962;SDS011;38827;53.024;6.596;2023-10-31T03:31:14;7.97;;;3.90;;
52962;SDS011;38827;53.024;6.596;2023-10-31T03:33:40;8.35;;;4.25;;
52962;SDS011;38827;53.024;6.596;2023-10-31T03:36:07;9.52;;;3.90;;
52962;SDS011;38827;53.024;6.596;2023-10-31T03:38:34;10.90;;;4.15;;
52962;SDS011;38827;53.024;6.596;2023-10-31T03:41:01;8.23;;;3.58;;
52962;SDS011;38827;53.024;6.596;2023-10-31T03:43:27;8.60;;;3.72;;
52962;SDS011;38827;53.024;6.596;2023-10-31T03:45:52;5.93;;;3.25;;
52962;SDS011;38827;53.024;6.596;2023-10-31T03:48:18;6.40;;;3.60;;
52962;SDS011;38827;53.024;6.596;2023-10-31T03:50:44;6.60;;;3.38;;
52962;SDS011;38827;53.024;6.596;2023-10-31T03:53:10;8.68;;;3.33;;
52962;SDS011;38827;53.024;6.596;2023-10-31T03:55:38;12.45;;;4.28;;
52962;SDS011;38827;53.024;6.596;2023-10-31T03:58:04;6.82;;;3.20;;
52962;SDS011;38827;53.024;6.596;2023-10-31T04:00:30;10.15;;;3.20;;
52962;SDS011;38827;53.024;6.596;2023-10-31T04:02:56;8.13;;;3.05;;
52962;SDS011;38827;53.024;6.596;2023-10-31T04:05:22;8.35;;;3.15;;
52962;SDS011;38827;53.024;6.596;2023-10-31T04:07:48;6.43;;;2.60;;
52962;SDS011;38827;53.024;6.596;2023-10-31T04:10:14;4.50;;;2.80;;
52962;SDS011;38827;53.024;6.596;2023-10-31T04:12:40;6.27;;;2.90;;
52962;SDS011;38827;53.024;6.596;2023-10-31T04:15:07;6.68;;;2.90;;
52962;SDS011;38827;53.024;6.596;2023-10-31T04:17:33;7.30;;;2.78;;
52962;SDS011;38827;53.024;6.596;2023-10-31T04:20:02;3.50;;;2.58;;
52962;SDS011;38827;53.024;6.596;2023-10-31T04:22:31;6.15;;;2.70;;
52962;SDS011;38827;53.024;6.596;2023-10-31T04:24:57;6.18;;;2.95;;
52962;SDS011;38827;53.024;6.596;2023-10-31T04:27:22;5.03;;;2.60;;
52962;SDS011;38827;53.024;6.596;2023-10-31T04:29:48;4.40;;;2.53;;
52962;SDS011;38827;53.024;6.596;2023-10-31T04:32:14;6.40;;;2.63;;
52962;SDS011;38827;53.024;6.596;2023-10-31T04:34:39;5.50;;;2.17;;
52962;SDS011;38827;53.024;6.596;2023-10-31T04:37:05;5.10;;;2.33;;
52962;SDS011;38827;53.024;6.596;2023-10-31T04:39:31;5.28;;;2.30;;
52962;SDS011;38827;53.024;6.596;2023-10-31T04:41:59;6.78;;;3.13;;
52962;SDS011;38827;53.024;6.596;2023-10-31T04:44:25;7.80;;;2.70;;
52962;SDS011;38827;53.024;6.596;2023-10-31T04:46:51;5.60;;;2.10;;
52962;SDS011;38827;53.024;6.596;2023-10-31T04:49:16;6.45;;;1.95;;
52962;SDS011;38827;53.024;6.596;2023-10-31T04:51:42;5.88;;;1.92;;
52962;SDS011;38827;53.024;6.596;2023-10-31T04:54:08;5.93;;;1.70;;
52962;SDS011;38827;53.024;6.596;2023-10-31T04:56:34;5.15;;;1.55;;
52962;SDS011;38827;53.024;6.596;2023-10-31T04:59:00;3.00;;;1.73;;
52962;SDS011;38827;53.024;6.596;2023-10-31T05:01:25;3.17;;;1.70;;
52962;SDS011;38827;53.024;6.596;2023-10-31T05:03:51;3.92;;;2.08;;
52962;SDS011;38827;53.024;6.596;2023-10-31T05:06:21;4.18;;;1.50;;
52962;SDS011;38827;53.024;6.596;2023-10-31T05:08:48;2.72;;;1.30;;
52962;SDS011;38827;53.024;6.596;2023-10-31T05:11:16;3.72;;;0.98;;
52962;SDS011;38827;53.024;6.596;2023-10-31T05:13:43;3.63;;;1.13;;
52962;SDS011;38827;53.024;6.596;2023-10-31T05:16:09;2.50;;;0.80;;
52962;SDS011;38827;53.024;6.596;2023-10-31T05:18:36;2.85;;;0.68;;
52962;SDS011;38827;53.024;6.596;2023-10-31T05:21:02;11.02;;;1.88;;
52962;SDS011;38827;53.024;6.596;2023-10-31T05:23:32;3.10;;;0.80;;
52962;SDS011;38827;53.024;6.596;2023-10-31T05:25:59;2.17;;;0.80;;
52962;SDS011;38827;53.024;6.596;2023-10-31T05:28:32;2.55;;;1.00;;
52962;SDS011;38827;53.024;6.596;2023-10-31T05:30:58;4.32;;;0.85;;
52962;SDS011;38827;53.024;6.596;2023-10-31T05:33:24;2.63;;;0.98;;
52962;SDS011;38827;53.024;6.596;2023-10-31T05:35:50;3.85;;;0.98;;
52962;SDS011;38827;53.024;6.596;2023-10-31T05:38:18;3.53;;;0.90;;
52962;SDS011;38827;53.024;6.596;2023-10-31T05:40:43;4.20;;;1.85;;
52962;SDS011;38827;53.024;6.596;2023-10-31T05:43:12;3.75;;;1.05;;
52962;SDS011;38827;53.024;6.596;2023-10-31T05:45:37;5.00;;;1.40;;
52962;SDS011;38827;53.024;6.596;2023-10-31T05:48:03;2.33;;;0.90;;
52962;SDS011;38827;53.024;6.596;2023-10-31T05:50:29;3.25;;;0.90;;
52962;SDS011;38827;53.024;6.596;2023-10-31T05:52:55;3.08;;;1.08;;
52962;SDS011;38827;53.024;6.596;2023-10-31T05:55:21;4.05;;;0.90;;
52962;SDS011;38827;53.024;6.596;2023-10-31T05:57:47;1.73;;;0.90;;
52962;SDS011;38827;53.024;6.596;2023-10-31T06:00:12;3.47;;;0.90;;
52962;SDS011;38827;53.024;6.596;2023-10-31T06:02:39;6.28;;;2.03;;
52962;SDS011;38827;53.024;6.596;2023-10-31T06:05:04;3.25;;;0.98;;
52962;SDS011;38827;53.024;6.596;2023-10-31T06:07:31;3.90;;;0.90;;
52962;SDS011;38827;53.024;6.596;2023-10-31T06:09:57;3.70;;;1.05;;
52962;SDS011;38827;53.024;6.596;2023-10-31T06:12:22;4.35;;;1.10;;
52962;SDS011;38827;53.024;6.596;2023-10-31T06:14:48;3.15;;;1.17;;
52962;SDS011;38827;53.024;6.596;2023-10-31T06:17:13;3.92;;;1.30;;
52962;SDS011;38827;53.024;6.596;2023-10-31T06:19:41;3.15;;;1.50;;
52962;SDS011;38827;53.024;6.596;2023-10-31T06:22:10;5.03;;;2.33;;
52962;SDS011;38827;53.024;6.596;2023-10-31T06:27:03;2.90;;;1.50;;
52962;SDS011;38827;53.024;6.596;2023-10-31T06:29:29;7.75;;;2.08;;
52962;SDS011;38827;53.024;6.596;2023-10-31T06:31:55;2.65;;;1.55;;
52962;SDS011;38827;53.024;6.596;2023-10-31T06:34:21;3.25;;;1.60;;
52962;SDS011;38827;53.024;6.596;2023-10-31T06:36:46;3.03;;;1.90;;
52962;SDS011;38827;53.024;6.596;2023-10-31T06:39:12;5.78;;;1.80;;
52962;SDS011;38827;53.024;6.596;2023-10-31T06:41:38;6.15;;;1.80;;
52962;SDS011;38827;53.024;6.596;2023-10-31T06:44:04;3.53;;;1.85;;
52962;SDS011;38827;53.024;6.596;2023-10-31T06:46:29;4.22;;;1.70;;
52962;SDS011;38827;53.024;6.596;2023-10-31T06:48:55;3.13;;;1.83;;
52962;SDS011;38827;53.024;6.596;2023-10-31T06:51:21;3.75;;;1.98;;
52962;SDS011;38827;53.024;6.596;2023-10-31T06:53:46;3.00;;;1.83;;
52962;SDS011;38827;53.024;6.596;2023-10-31T06:56:12;3.92;;;2.05;;
52962;SDS011;38827;53.024;6.596;2023-10-31T06:58:37;4.55;;;2.00;;
52962;SDS011;38827;53.024;6.596;2023-10-31T07:01:06;4.10;;;2.30;;
52962;SDS011;38827;53.024;6.596;2023-10-31T07:03:32;4.70;;;2.75;;
52962;SDS011;38827;53.024;6.596;2023-10-31T07:05:57;4.13;;;2.25;;
52962;SDS011;38827;53.024;6.596;2023-10-31T07:08:24;6.30;;;2.80;;
52962;SDS011;38827;53.024;6.596;2023-10-31T07:10:49;6.25;;;3.70;;
52962;SDS011;38827;53.024;6.596;2023-10-31T07:13:15;6.15;;;3.35;;
52962;SDS011;38827;53.024;6.596;2023-10-31T07:15:41;6.50;;;2.63;;
52962;SDS011;38827;53.024;6.596;2023-10-31T07:18:07;5.47;;;3.08;;
52962;SDS011;38827;53.024;6.596;2023-10-31T07:20:33;4.57;;;2.92;;
52962;SDS011;38827;53.024;6.596;2023-10-31T07:23:02;6.28;;;2.67;;
52962;SDS011;38827;53.024;6.596;2023-10-31T07:25:32;5.88;;;2.97;;
52962;SDS011;38827;53.024;6.596;2023-10-31T07:27:57;7.55;;;3.50;;
52962;SDS011;38827;53.024;6.596;2023-10-31T07:30:23;6.43;;;3.28;;
52962;SDS011;38827;53.024;6.596;2023-10-31T07:32:49;6.30;;;3.00;;
52962;SDS011;38827;53.024;6.596;2023-10-31T07:35:14;9.63;;;3.40;;
52962;SDS011;38827;53.024;6.596;2023-10-31T07:37:40;6.43;;;3.35;;
52962;SDS011;38827;53.024;6.596;2023-10-31T07:40:06;6.47;;;2.83;;
52962;SDS011;38827;53.024;6.596;2023-10-31T07:42:31;6.72;;;2.80;;
52962;SDS011;38827;53.024;6.596;2023-10-31T07:44:57;6.00;;;2.78;;
52962;SDS011;38827;53.024;6.596;2023-10-31T07:47:23;6.88;;;2.67;;
52962;SDS011;38827;53.024;6.596;2023-10-31T07:49:49;5.78;;;2.45;;
52962;SDS011;38827;53.024;6.596;2023-10-31T07:52:15;5.60;;;2.60;;
52962;SDS011;38827;53.024;6.596;2023-10-31T07:54:40;7.30;;;2.63;;
52962;SDS011;38827;53.024;6.596;2023-10-31T07:57:06;7.47;;;2.58;;
52962;SDS011;38827;53.024;6.596;2023-10-31T07:59:35;6.05;;;2.30;;
52962;SDS011;38827;53.024;6.596;2023-10-31T08:02:04;6.43;;;2.00;;
52962;SDS011;38827;53.024;6.596;2023-10-31T08:04:29;7.13;;;1.90;;
52962;SDS011;38827;53.024;6.596;2023-10-31T08:06:55;7.05;;;1.55;;
52962;SDS011;38827;53.024;6.596;2023-10-31T08:09:23;5.82;;;1.40;;
52962;SDS011;38827;53.024;6.596;2023-10-31T08:12:03;4.85;;;1.30;;
52962;SDS011;38827;53.024;6.596;2023-10-31T08:14:37;9.70;;;1.90;;
52962;SDS011;38827;53.024;6.596;2023-10-31T08:17:03;3.42;;;1.17;;
52962;SDS011;38827;53.024;6.596;2023-10-31T08:19:35;6.47;;;1.17;;
52962;SDS011;38827;53.024;6.596;2023-10-31T08:22:09;4.82;;;1.02;;
52962;SDS011;38827;53.024;6.596;2023-10-31T08:24:58;4.45;;;1.05;;
52962;SDS011;38827;53.024;6.596;2023-10-31T08:27:24;6.53;;;1.48;;
52962;SDS011;38827;53.024;6.596;2023-10-31T08:29:52;4.18;;;1.15;;
52962;SDS011;38827;53.024;6.596;2023-10-31T08:32:19;5.47;;;0.80;;
52962;SDS011;38827;53.024;6.596;2023-10-31T08:34:52;3.55;;;0.95;;
52962;SDS011;38827;53.024;6.596;2023-10-31T08:37:19;5.18;;;0.90;;
52962;SDS011;38827;53.024;6.596;2023-10-31T08:39:47;3.00;;;0.80;;
52962;SDS011;38827;53.024;6.596;2023-10-31T08:42:12;3.92;;;0.70;;
52962;SDS011;38827;53.024;6.596;2023-10-31T08:44:39;2.80;;;0.60;;
52962;SDS011;38827;53.024;6.596;2023-10-31T08:47:16;2.72;;;0.57;;
52962;SDS011;38827;53.024;6.596;2023-10-31T08:50:01;5.57;;;0.80;;
52962;SDS011;38827;53.024;6.596;2023-10-31T08:52:39;2.03;;;0.60;;
52962;SDS011;38827;53.024;6.596;2023-10-31T08:55:07;1.90;;;0.70;;
52962;SDS011;38827;53.024;6.596;2023-10-31T08:57:36;4.38;;;0.80;;
52962;SDS011;38827;53.024;6.596;2023-10-31T09:00:02;4.45;;;0.73;;
52962;SDS011;38827;53.024;6.596;2023-10-31T09:02:30;3.50;;;0.63;;
52962;SDS011;38827;53.024;6.596;2023-10-31T09:04:55;4.85;;;0.90;;
52962;SDS011;38827;53.024;6.596;2023-10-31T09:07:22;3.80;;;0.50;;
52962;SDS011;38827;53.024;6.596;2023-10-31T09:09:47;2.08;;;0.65;;
52962;SDS011;38827;53.024;6.596;2023-10-31T09:12:13;2.83;;;0.80;;
52962;SDS011;38827;53.024;6.596;2023-10-31T09:14:41;2.20;;;0.70;;
52962;SDS011;38827;53.024;6.596;2023-10-31T09:17:07;2.05;;;0.52;;
52962;SDS011;38827;53.024;6.596;2023-10-31T09:19:33;2.45;;;0.50;;
52962;SDS011;38827;53.024;6.596;2023-10-31T09:21:59;2.08;;;0.50;;
52962;SDS011;38827;53.024;6.596;2023-10-31T09:24:24;2.63;;;0.60;;
52962;SDS011;38827;53.024;6.596;2023-10-31T09:26:50;2.67;;;0.50;;
52962;SDS011;38827;53.024;6.596;2023-10-31T09:29:18;4.28;;;0.77;;
52962;SDS011;38827;53.024;6.596;2023-10-31T09:31:46;5.25;;;0.70;;
52962;SDS011;38827;53.024;6.596;2023-10-31T09:34:12;4.28;;;0.60;;
52962;SDS011;38827;53.024;6.596;2023-10-31T09:36:41;7.97;;;0.73;;
52962;SDS011;38827;53.024;6.596;2023-10-31T09:39:09;4.60;;;0.90;;
52962;SDS011;38827;53.024;6.596;2023-10-31T09:41:38;11.10;;;1.08;;
52962;SDS011;38827;53.024;6.596;2023-10-31T09:44:20;12.43;;;0.93;;
52962;SDS011;38827;53.024;6.596;2023-10-31T09:47:18;10.52;;;1.13;;
52962;SDS011;38827;53.024;6.596;2023-10-31T09:50:07;5.00;;;0.82;;
52962;SDS011;38827;53.024;6.596;2023-10-31T09:52:57;6.75;;;1.10;;
52962;SDS011;38827;53.024;6.596;2023-10-31T09:55:36;3.60;;;0.80;;
52962;SDS011;38827;53.024;6.596;2023-10-31T09:58:06;4.07;;;0.60;;
52962;SDS011;38827;53.024;6.596;2023-10-31T10:00:33;3.83;;;0.75;;
52962;SDS011;38827;53.024;6.596;2023-10-31T10:02:59;4.70;;;0.88;;
52962;SDS011;38827;53.024;6.596;2023-10-31T10:05:24;6.60;;;0.90;;
52962;SDS011;38827;53.024;6.596;2023-10-31T10:07:54;3.50;;;0.75;;
52962;SDS011;38827;53.024;6.596;2023-10-31T10:10:22;6.10;;;0.60;;
52962;SDS011;38827;53.024;6.596;2023-10-31T10:12:48;2.03;;;0.70;;
52962;SDS011;38827;53.024;6.596;2023-10-31T10:15:16;2.85;;;0.63;;
52962;SDS011;38827;53.024;6.596;2023-10-31T10:17:48;2.60;;;0.57;;
52962;SDS011;38827;53.024;6.596;2023-10-31T10:20:14;3.13;;;0.60;;
52962;SDS011;38827;53.024;6.596;2023-10-31T10:22:40;5.55;;;0.80;;
52962;SDS011;38827;53.024;6.596;2023-10-31T10:25:18;9.88;;;0.82;;
52962;SDS011;38827;53.024;6.596;2023-10-31T10:27:44;3.20;;;0.70;;
52962;SDS011;38827;53.024;6.596;2023-10-31T10:30:11;4.70;;;0.50;;
52962;SDS011;38827;53.024;6.596;2023-10-31T10:32:38;4.10;;;0.95;;
52962;SDS011;38827;53.024;6.596;2023-10-31T10:35:06;6.22;;;0.88;;
52962;SDS011;38827;53.024;6.596;2023-10-31T10:37:33;3.83;;;0.75;;
52962;SDS011;38827;53.024;6.596;2023-10-31T10:40:03;3.83;;;1.02;;
52962;SDS011;38827;53.024;6.596;2023-10-31T10:42:45;4.15;;;1.10;;
52962;SDS011;38827;53.024;6.596;2023-10-31T10:45:12;7.57;;;1.73;;
52962;SDS011;38827;53.024;6.596;2023-10-31T10:47:45;3.35;;;0.93;;
52962;SDS011;38827;53.024;6.596;2023-10-31T10:50:15;5.63;;;0.73;;
52962;SDS011;38827;53.024;6.596;2023-10-31T10:52:50;2.55;;;0.60;;
52962;SDS011;38827;53.024;6.596;2023-10-31T10:55:39;2.93;;;0.70;;
52962;SDS011;38827;53.024;6.596;2023-10-31T10:58:33;2.20;;;0.50;;
52962;SDS011;38827;53.024;6.596;2023-10-31T11:01:20;6.68;;;0.60;;
52962;SDS011;38827;53.024;6.596;2023-10-31T11:03:46;4.57;;;0.73;;
52962;SDS011;38827;53.024;6.596;2023-10-31T11:06:17;5.72;;;0.80;;
52962;SDS011;38827;53.024;6.596;2023-10-31T11:08:49;5.45;;;0.80;;
52962;SDS011;38827;53.024;6.596;2023-10-31T11:11:19;5.85;;;0.70;;
52962;SDS011;38827;53.024;6.596;2023-10-31T11:13:45;3.90;;;0.77;;
52962;SDS011;38827;53.024;6.596;2023-10-31T11:16:14;2.80;;;0.60;;
52962;SDS011;38827;53.024;6.596;2023-10-31T11:18:45;3.88;;;0.80;;
52962;SDS011;38827;53.024;6.596;2023-10-31T11:21:14;2.75;;;0.68;;
52962;SDS011;38827;53.024;6.596;2023-10-31T11:23:40;5.63;;;0.70;;
52962;SDS011;38827;53.024;6.596;2023-10-31T11:26:09;3.88;;;0.60;;
52962;SDS011;38827;53.024;6.596;2023-10-31T11:28:35;7.00;;;0.88;;
52962;SDS011;38827;53.024;6.596;2023-10-31T11:31:01;6.93;;;0.90;;
52962;SDS011;38827;53.024;6.596;2023-10-31T11:33:28;3.92;;;0.70;;
52962;SDS011;38827;53.024;6.596;2023-10-31T11:36:03;6.80;;;0.98;;
52962;SDS011;38827;53.024;6.596;2023-10-31T11:38:51;5.03;;;0.70;;
52962;SDS011;38827;53.024;6.596;2023-10-31T11:41:59;4.70;;;1.20;;
52962;SDS011;38827;53.024;6.596;2023-10-31T11:51:41;4.80;;;0.90;;
52962;SDS011;38827;53.024;6.596;2023-10-31T11:54:15;5.32;;;0.80;;
52962;SDS011;38827;53.024;6.596;2023-10-31T11:59:21;5.13;;;1.73;;
52962;SDS011;38827;53.024;6.596;2023-10-31T12:01:55;6.68;;;1.10;;
52962;SDS011;38827;53.024;6.596;2023-10-31T12:04:48;4.85;;;0.80;;
52962;SDS011;38827;53.024;6.596;2023-10-31T12:07:24;4.22;;;0.85;;
52962;SDS011;38827;53.024;6.596;2023-10-31T12:09:59;3.08;;;0.60;;
52962;SDS011;38827;53.024;6.596;2023-10-31T12:12:39;3.20;;;0.55;;
52962;SDS011;38827;53.024;6.596;2023-10-31T12:15:13;5.72;;;1.10;;
52962;SDS011;38827;53.024;6.596;2023-10-31T12:17:57;3.83;;;1.17;;
52962;SDS011;38827;53.024;6.596;2023-10-31T12:25:33;3.60;;;0.90;;
52962;SDS011;38827;53.024;6.596;2023-10-31T12:32:25;6.68;;;1.35;;
52962;SDS011;38827;53.024;6.596;2023-10-31T12:38:13;5.65;;;1.15;;
52962;SDS011;38827;53.024;6.596;2023-10-31T12:40:48;8.57;;;1.52;;
52962;SDS011;38827;53.024;6.596;2023-10-31T12:49:12;4.82;;;1.45;;
52962;SDS011;38827;53.024;6.596;2023-10-31T13:00:01;4.53;;;0.90;;
52962;SDS011;38827;53.024;6.596;2023-10-31T13:02:34;4.55;;;0.85;;
52962;SDS011;38827;53.024;6.596;2023-10-31T13:05:10;3.55;;;1.10;;
52962;SDS011;38827;53.024;6.596;2023-10-31T13:11:19;5.07;;;1.00;;
52962;SDS011;38827;53.024;6.596;2023-10-31T13:13:59;5.00;;;1.02;;
52962;SDS011;38827;53.024;6.596;2023-10-31T13:16:25;4.07;;;0.90;;
52962;SDS011;38827;53.024;6.596;2023-10-31T13:19:18;4.03;;;0.90;;
52962;SDS011;38827;53.024;6.596;2023-10-31T13:27:34;5.63;;;0.95;;
52962;SDS011;38827;53.024;6.596;2023-10-31T13:30:20;5.68;;;0.90;;
52962;SDS011;38827;53.024;6.596;2023-10-31T13:33:04;3.63;;;0.90;;
52962;SDS011;38827;53.024;6.596;2023-10-31T13:35:48;6.32;;;0.77;;
52962;SDS011;38827;53.024;6.596;2023-10-31T13:38:14;3.22;;;0.90;;
52962;SDS011;38827;53.024;6.596;2023-10-31T13:40:40;5.68;;;0.90;;
52962;SDS011;38827;53.024;6.596;2023-10-31T13:43:06;5.72;;;0.80;;
52962;SDS011;38827;53.024;6.596;2023-10-31T13:47:58;5.97;;;0.80;;
52962;SDS011;38827;53.024;6.596;2023-10-31T13:50:24;4.03;;;1.20;;
52962;SDS011;38827;53.024;6.596;2023-10-31T13:52:50;4.63;;;0.80;;
52962;SDS011;38827;53.024;6.596;2023-10-31T13:55:17;9.95;;;1.00;;
52962;SDS011;38827;53.024;6.596;2023-10-31T13:57:46;6.30;;;1.40;;
52962;SDS011;38827;53.024;6.596;2023-10-31T14:03:31;7.85;;;1.13;;
52962;SDS011;38827;53.024;6.596;2023-10-31T14:08:59;2.78;;;0.63;;
52962;SDS011;38827;53.024;6.596;2023-10-31T14:11:54;10.88;;;2.05;;
52962;SDS011;38827;53.024;6.596;2023-10-31T14:17:14;7.38;;;1.05;;
52962;SDS011;38827;53.024;6.596;2023-10-31T14:20:44;4.82;;;1.10;;
52962;SDS011;38827;53.024;6.596;2023-10-31T14:22:39;4.13;;;1.10;;
52962;SDS011;38827;53.024;6.596;2023-10-31T14:25:06;9.20;;;1.20;;
52962;SDS011;38827;53.024;6.596;2023-10-31T14:27:50;7.82;;;1.63;;
52962;SDS011;38827;53.024;6.596;2023-10-31T14:32:59;5.13;;;1.20;;
52962;SDS011;38827;53.024;6.596;2023-10-31T14:38:15;7.55;;;1.88;;
52962;SDS011;38827;53.024;6.596;2023-10-31T14:44:31;7.25;;;1.48;;
52962;SDS011;38827;53.024;6.596;2023-10-31T14:47:12;5.20;;;1.20;;
52962;SDS011;38827;53.024;6.596;2023-10-31T14:49:56;8.18;;;1.40;;
52962;SDS011;38827;53.024;6.596;2023-10-31T14:52:25;7.05;;;1.85;;
52962;SDS011;38827;53.024;6.596;2023-10-31T14:54:51;8.43;;;1.48;;
52962;SDS011;38827;53.024;6.596;2023-10-31T15:03:17;6.07;;;1.40;;
52962;SDS011;38827;53.024;6.596;2023-10-31T15:05:55;8.40;;;1.52;;
52962;SDS011;38827;53.024;6.596;2023-10-31T15:08:33;8.45;;;1.27;;
52962;SDS011;38827;53.024;6.596;2023-10-31T15:11:17;7.88;;;1.48;;
52962;SDS011;38827;53.024;6.596;2023-10-31T15:13:43;6.00;;;1.45;;
52962;SDS011;38827;53.024;6.596;2023-10-31T15:19:12;8.35;;;1.42;;
52962;SDS011;38827;53.024;6.596;2023-10-31T15:21:53;9.82;;;1.85;;
52962;SDS011;38827;53.024;6.596;2023-10-31T15:24:22;9.93;;;1.45;;
52962;SDS011;38827;53.024;6.596;2023-10-31T15:26:56;6.78;;;1.60;;
52962;SDS011;38827;53.024;6.596;2023-10-31T15:29:22;6.80;;;1.77;;
52962;SDS011;38827;53.024;6.596;2023-10-31T15:34:33;10.38;;;1.88;;
52962;SDS011;38827;53.024;6.596;2023-10-31T15:37:05;7.25;;;1.08;;
52962;SDS011;38827;53.024;6.596;2023-10-31T15:39:30;10.38;;;1.50;;
52962;SDS011;38827;53.024;6.596;2023-10-31T15:41:56;11.48;;;2.08;;
52962;SDS011;38827;53.024;6.596;2023-10-31T15:44:31;11.25;;;2.10;;
52962;SDS011;38827;53.024;6.596;2023-10-31T15:46:57;10.18;;;1.73;;
52962;SDS011;38827;53.024;6.596;2023-10-31T15:49:23;9.50;;;1.70;;
52962;SDS011;38827;53.024;6.596;2023-10-31T15:51:49;6.40;;;1.83;;
52962;SDS011;38827;53.024;6.596;2023-10-31T15:54:42;6.82;;;2.33;;
52962;SDS011;38827;53.024;6.596;2023-10-31T15:57:07;7.95;;;1.95;;
52962;SDS011;38827;53.024;6.596;2023-10-31T15:59:33;5.60;;;1.65;;
52962;SDS011;38827;53.024;6.596;2023-10-31T16:02:27;7.07;;;1.58;;
52962;SDS011;38827;53.024;6.596;2023-10-31T16:05:02;7.85;;;2.75;;
52962;SDS011;38827;53.024;6.596;2023-10-31T16:07:30;6.57;;;2.22;;
52962;SDS011;38827;53.024;6.596;2023-10-31T16:13:49;8.90;;;2.17;;
52962;SDS011;38827;53.024;6.596;2023-10-31T16:16:31;9.00;;;1.30;;
52962;SDS011;38827;53.024;6.596;2023-10-31T16:22:47;14.77;;;8.27;;
52962;SDS011;38827;53.024;6.596;2023-10-31T16:26:11;7.97;;;1.75;;
52962;SDS011;38827;53.024;6.596;2023-10-31T16:28:43;8.77;;;1.52;;
52962;SDS011;38827;53.024;6.596;2023-10-31T16:31:43;8.05;;;1.13;;